createdAt,value
2019-02-17T00:01:44.003Z,5.67
2019-02-17T00:04:15.520Z,5.67
2019-02-17T00:06:47.075Z,5.64
2019-02-17T00:09:19.522Z,5.56
2019-02-17T00:11:50.112Z,5.55
2019-02-17T00:14:23.894Z,5.52
2019-02-17T00:16:53.920Z,5.52
2019-02-17T00:19:25.988Z,5.47
2019-02-17T00:21:56.594Z,5.42
2019-02-17T00:24:26.953Z,5.40
2019-02-17T00:26:59.043Z,5.34
2019-02-17T00:29:32.267Z,5.33
2019-02-17T00:32:02.708Z,5.26
2019-02-17T00:34:33.409Z,5.27
2019-02-17T00:37:04.898Z,5.31
2019-02-17T00:39:37.524Z,5.37
2019-02-17T00:42:09.453Z,5.42
2019-02-17T00:44:39.889Z,5.38
2019-02-17T00:47:10.529Z,5.37
2019-02-17T00:49:41.161Z,5.39
2019-02-17T00:52:14.107Z,5.32
2019-02-17T00:54:44.503Z,5.21
2019-02-17T00:57:15.397Z,5.11
2019-02-17T00:59:47.082Z,5.01
2019-02-17T01:02:17.585Z,4.96
2019-02-17T01:04:48.135Z,4.94
2019-02-17T01:07:19.963Z,4.91
2019-02-17T01:09:50.512Z,4.83
2019-02-17T01:12:24.271Z,4.72
2019-02-17T01:14:56.208Z,4.72
2019-02-17T01:17:38.175Z,4.73
2019-02-17T01:20:10.317Z,4.71
2019-02-17T01:22:43.117Z,4.72
2019-02-17T01:25:13.730Z,4.86
2019-02-17T01:27:44.382Z,4.87
2019-02-17T01:30:15.982Z,4.88
2019-02-17T01:32:46.575Z,4.90
2019-02-17T01:35:16.870Z,4.90
2019-02-17T01:37:48.972Z,4.94
2019-02-17T01:40:20.462Z,4.94
2019-02-17T01:42:51.136Z,4.89
2019-02-17T01:45:22.536Z,4.85
2019-02-17T01:47:52.857Z,4.93
2019-02-17T01:50:23.158Z,4.93
2019-02-17T01:52:55.617Z,4.90
2019-02-17T01:55:25.961Z,4.90
2019-02-17T01:57:57.613Z,4.97
2019-02-17T02:00:45.212Z,4.98
2019-02-17T02:03:10.471Z,5.05
2019-02-17T02:05:40.869Z,5.12
2019-02-17T02:08:12.777Z,5.04
2019-02-17T02:10:43.082Z,5.00
2019-02-17T02:13:13.758Z,4.93
2019-02-17T02:15:44.093Z,4.85
2019-02-17T02:18:15.232Z,4.88
2019-02-17T02:20:45.756Z,4.90
2019-02-17T02:23:17.493Z,4.86
2019-02-17T02:25:47.873Z,4.73
2019-02-17T02:28:19.073Z,4.67
2019-02-17T02:30:49.695Z,4.59
2019-02-17T02:33:21.656Z,4.48
2019-02-17T02:35:52.263Z,4.37
2019-02-17T02:38:22.737Z,4.37
2019-02-17T02:40:53.371Z,4.44
2019-02-17T02:43:23.737Z,4.48
2019-02-17T02:45:55.719Z,4.49
2019-02-17T02:48:26.003Z,4.52
2019-02-17T02:50:56.665Z,4.54
2019-02-17T02:53:27.003Z,4.62
2019-02-17T02:55:57.429Z,4.61
2019-02-17T02:58:27.931Z,4.58
2019-02-17T03:00:58.241Z,4.54
2019-02-17T03:03:28.863Z,4.43
2019-02-17T03:06:10.057Z,4.40
2019-02-17T03:08:40.505Z,4.32
2019-02-17T03:11:11.223Z,4.29
2019-02-17T03:13:43.304Z,4.31
2019-02-17T03:16:13.986Z,4.36
2019-02-17T03:18:45.785Z,4.40
2019-02-17T03:21:24.710Z,4.38
2019-02-17T03:23:55.428Z,4.31
2019-02-17T03:26:25.798Z,4.28
2019-02-17T03:28:57.840Z,4.22
2019-02-17T03:31:29.732Z,4.19
2019-02-17T03:34:00.041Z,4.11
2019-02-17T03:36:30.689Z,4.01
2019-02-17T03:39:01.094Z,4.07
2019-02-17T03:41:33.281Z,4.09
2019-02-17T03:44:03.893Z,4.15
2019-02-17T03:46:36.419Z,4.28
2019-02-17T03:49:07.002Z,4.34
2019-02-17T03:51:37.307Z,4.37
2019-02-17T03:54:07.846Z,4.34
2019-02-17T03:56:39.382Z,4.36
2019-02-17T03:59:11.338Z,4.34
2019-02-17T04:01:42.592Z,4.30
2019-02-17T04:04:14.074Z,4.28
2019-02-17T04:06:45.574Z,4.28
2019-02-17T04:09:15.879Z,4.26
2019-02-17T04:11:50.204Z,4.18
2019-02-17T04:14:20.497Z,4.19
2019-02-17T04:16:51.181Z,4.14
2019-02-17T04:19:21.864Z,4.20
2019-02-17T04:21:56.832Z,4.26
2019-02-17T04:24:27.632Z,4.29
2019-02-17T04:27:00.078Z,4.36
2019-02-17T04:29:33.808Z,4.40
2019-02-17T04:32:04.168Z,4.44
2019-02-17T04:34:38.411Z,4.47
2019-02-17T04:37:11.626Z,4.45
2019-02-17T04:39:41.904Z,4.40
2019-02-17T04:42:12.344Z,4.41
2019-02-17T04:44:43.938Z,4.41
2019-02-17T04:47:14.315Z,4.32
2019-02-17T04:49:50.205Z,4.25
2019-02-17T04:52:22.578Z,4.27
2019-02-17T04:54:53.162Z,4.22
2019-02-17T04:57:28.790Z,4.19
2019-02-17T04:59:59.331Z,4.19
2019-02-17T05:02:29.773Z,4.15
2019-02-17T05:05:04.396Z,4.15
2019-02-17T05:07:38.116Z,4.16
2019-02-17T05:10:18.172Z,4.13
2019-02-17T05:12:49.979Z,4.10
2019-02-17T05:15:21.182Z,4.10
2019-02-17T05:17:51.734Z,4.12
2019-02-17T05:20:24.531Z,4.12
2019-02-17T05:22:56.730Z,4.17
2019-02-17T05:25:28.115Z,4.22
2019-02-17T05:28:07.851Z,4.26
2019-02-17T05:30:38.572Z,4.24
2019-02-17T05:33:14.464Z,4.20
2019-02-17T05:35:43.652Z,4.08
2019-02-17T05:38:15.366Z,3.99
2019-02-17T05:40:49.494Z,3.95
2019-02-17T05:43:19.846Z,4.05
2019-02-17T05:45:50.255Z,4.00
2019-02-17T05:48:24.764Z,4.03
2019-02-17T05:50:55.291Z,3.98
2019-02-17T05:53:25.788Z,4.00
2019-02-17T05:55:56.088Z,4.13
2019-02-17T05:58:29.918Z,4.26
2019-02-17T06:01:03.796Z,4.33
2019-02-17T06:03:34.428Z,4.36
2019-02-17T06:06:08.985Z,4.41
2019-02-17T06:08:41.073Z,4.41
2019-02-17T06:11:20.607Z,4.41
2019-02-17T06:13:50.902Z,4.41
2019-02-17T06:16:23.376Z,4.38
2019-02-17T06:18:54.016Z,4.34
2019-02-17T06:21:25.961Z,4.34
2019-02-17T06:23:57.813Z,4.39
2019-02-17T06:26:28.476Z,4.42
2019-02-17T06:28:59.929Z,4.51
2019-02-17T06:31:30.486Z,4.58
2019-02-17T06:34:03.929Z,4.56
2019-02-17T06:36:34.234Z,4.56
2019-02-17T06:39:05.679Z,4.57
2019-02-17T06:41:39.611Z,4.58
2019-02-17T06:44:10.241Z,4.58
2019-02-17T06:46:45.469Z,4.60
2019-02-17T06:49:16.196Z,4.60
2019-02-17T06:51:46.612Z,4.61
2019-02-17T06:54:17.238Z,4.61
2019-02-17T06:57:09.167Z,4.64
2019-02-17T06:59:43.581Z,4.67
2019-02-17T07:02:18.120Z,4.70
2019-02-17T07:05:22.749Z,4.78
2019-02-17T07:07:53.029Z,4.89
2019-02-17T07:10:29.064Z,4.99
2019-02-17T07:13:03.858Z,5.10
2019-02-17T07:15:40.880Z,5.19
2019-02-17T07:18:11.680Z,5.27
2019-02-17T07:20:46.170Z,5.35
2019-02-17T07:23:17.738Z,5.44
2019-02-17T07:25:49.017Z,5.55
2019-02-17T07:28:20.605Z,5.70
2019-02-17T07:30:52.830Z,5.85
2019-02-17T07:33:23.122Z,5.96
2019-02-17T07:35:53.443Z,6.08
2019-02-17T07:38:23.782Z,6.18
2019-02-17T07:40:57.157Z,6.29
2019-02-17T07:43:32.088Z,6.44
2019-02-17T07:46:05.591Z,6.58
2019-02-17T07:48:36.029Z,6.73
2019-02-17T07:51:06.675Z,6.90
2019-02-17T07:53:36.976Z,7.06
2019-02-17T07:56:08.548Z,7.21
2019-02-17T07:58:41.735Z,7.37
2019-02-17T08:01:12.395Z,7.52
2019-02-17T08:03:45.740Z,7.68
2019-02-17T08:06:21.637Z,7.85
2019-02-17T08:08:49.493Z,8.05
2019-02-17T08:11:28.857Z,8.23
2019-02-17T08:14:02.353Z,8.65
2019-02-17T08:16:33.305Z,8.65
2019-02-17T08:19:08.620Z,8.85
2019-02-17T08:21:39.244Z,9.09
2019-02-17T08:24:09.735Z,9.28
2019-02-17T08:26:40.171Z,9.41
2019-02-17T08:29:11.903Z,9.62
2019-02-17T08:31:42.471Z,9.86
2019-02-17T08:34:15.385Z,11.42
2019-02-17T08:36:45.893Z,13.83
2019-02-17T08:39:20.562Z,15.25
2019-02-17T08:41:51.948Z,15.41
2019-02-17T08:44:25.657Z,15.41
2019-02-17T08:46:58.612Z,15.10
2019-02-17T08:49:28.974Z,15.57
2019-02-17T08:52:02.727Z,16.33
2019-02-17T08:54:35.055Z,16.68
2019-02-17T08:57:07.533Z,16.69
2019-02-17T08:59:39.725Z,16.10
2019-02-17T09:02:10.037Z,15.12
2019-02-17T09:04:40.412Z,14.58
2019-02-17T09:07:14.155Z,14.92
2019-02-17T09:09:44.485Z,14.93
2019-02-17T09:12:16.778Z,15.30
2019-02-17T09:14:47.312Z,15.43
2019-02-17T09:17:18.065Z,15.96
2019-02-17T09:19:52.203Z,16.77
2019-02-17T09:22:24.805Z,16.75
2019-02-17T09:24:55.846Z,15.95
2019-02-17T09:27:30.560Z,15.96
2019-02-17T09:30:02.117Z,16.16
2019-02-17T09:32:33.897Z,15.44
2019-02-17T09:35:04.532Z,14.71
2019-02-17T09:37:37.302Z,14.89
2019-02-17T09:40:09.070Z,15.59
2019-02-17T09:42:40.409Z,16.61
2019-02-17T09:45:13.073Z,18.12
2019-02-17T09:47:44.286Z,19.60
2019-02-17T09:50:14.713Z,21.38
2019-02-17T09:52:48.275Z,22.69
2019-02-17T09:55:20.579Z,24.29
2019-02-17T09:57:52.135Z,25.45
2019-02-17T10:00:28.595Z,26.27
2019-02-17T10:03:04.059Z,26.23
2019-02-17T10:05:35.190Z,25.71
2019-02-17T10:08:09.615Z,26.93
2019-02-17T10:10:41.578Z,27.09
2019-02-17T10:13:12.132Z,27.17
2019-02-17T10:15:51.843Z,26.67
2019-02-17T10:18:23.133Z,26.72
2019-02-17T10:20:53.831Z,25.79
2019-02-17T10:23:26.485Z,25.28
2019-02-17T10:25:58.458Z,23.91
2019-02-17T10:28:30.799Z,23.58
2019-02-17T10:31:01.787Z,23.03
2019-02-17T10:33:33.283Z,23.30
2019-02-17T10:36:03.984Z,24.35
2019-02-17T10:38:35.335Z,25.22
2019-02-17T10:41:06.156Z,25.70
2019-02-17T10:43:37.262Z,24.97
2019-02-17T10:46:09.945Z,21.78
2019-02-17T10:48:40.723Z,18.81
2019-02-17T10:51:13.306Z,17.04
2019-02-17T10:53:51.321Z,15.96
2019-02-17T10:56:25.173Z,15.47
2019-02-17T10:58:55.841Z,14.95
2019-02-17T11:01:26.173Z,14.56
2019-02-17T11:04:08.607Z,14.33
2019-02-17T11:06:38.955Z,14.04
2019-02-17T11:09:19.905Z,13.97
2019-02-17T11:11:53.143Z,13.86
2019-02-17T11:14:23.573Z,13.79
2019-02-17T11:16:55.018Z,13.76
2019-02-17T11:19:26.678Z,13.70
2019-02-17T11:21:58.139Z,13.71
2019-02-17T11:24:28.878Z,13.74
2019-02-17T11:27:00.508Z,13.79
2019-02-17T11:29:30.804Z,13.82
2019-02-17T11:32:01.648Z,13.85
2019-02-17T11:34:32.171Z,13.97
2019-02-17T11:37:02.492Z,14.10
2019-02-17T11:39:33.109Z,14.25
2019-02-17T11:42:07.537Z,14.34
2019-02-17T11:44:39.714Z,14.44
2019-02-17T11:47:10.418Z,14.55
2019-02-17T11:49:42.525Z,14.64
2019-02-17T11:52:13.188Z,14.68
2019-02-17T11:54:47.552Z,14.72
2019-02-17T11:57:23.595Z,14.70
2019-02-17T11:59:51.055Z,14.64
2019-02-17T12:02:27.665Z,14.54
2019-02-17T12:05:04.155Z,14.51
2019-02-17T12:07:37.582Z,14.55
2019-02-17T12:10:10.293Z,14.53
2019-02-17T12:12:41.273Z,14.59
2019-02-17T12:15:13.919Z,14.62
2019-02-17T12:17:45.462Z,14.69
2019-02-17T12:20:41.870Z,14.79
2019-02-17T12:23:19.389Z,14.86
2019-02-17T12:25:55.195Z,14.93
2019-02-17T12:28:29.785Z,15.03
2019-02-17T12:31:04.883Z,15.14
2019-02-17T12:33:35.595Z,15.25
2019-02-17T12:36:08.570Z,15.38
2019-02-17T12:39:34.102Z,15.46
2019-02-17T12:41:18.128Z,15.53
2019-02-17T12:43:56.314Z,15.61
2019-02-17T12:46:27.550Z,15.65
2019-02-17T12:48:58.123Z,15.68
2019-02-17T12:51:32.924Z,15.68
2019-02-17T12:54:03.461Z,15.67
2019-02-17T12:56:34.526Z,15.64
2019-02-17T12:59:10.588Z,15.63
2019-02-17T13:01:41.744Z,15.69
2019-02-17T13:04:12.814Z,15.72
2019-02-17T13:06:49.510Z,15.69
2019-02-17T13:09:19.963Z,15.71
2019-02-17T13:11:50.288Z,15.72
2019-02-17T13:14:23.023Z,15.72
2019-02-17T13:16:56.075Z,15.77
2019-02-17T13:19:26.674Z,15.82
2019-02-17T13:21:57.798Z,15.82
2019-02-17T13:24:31.547Z,15.78
2019-02-17T13:27:02.377Z,15.78
2019-02-17T13:29:33.270Z,15.78
2019-02-17T13:32:05.310Z,15.80
2019-02-17T13:34:36.909Z,15.75
2019-02-17T13:37:09.237Z,15.75
2019-02-17T13:39:43.306Z,15.80
2019-02-17T13:42:13.967Z,15.89
2019-02-17T13:44:47.100Z,15.89
2019-02-17T13:47:19.421Z,15.90
2019-02-17T13:49:50.436Z,15.94
2019-02-17T13:52:32.105Z,16.00
2019-02-17T13:55:03.725Z,16.04
2019-02-17T13:57:34.252Z,16.08
2019-02-17T14:00:05.817Z,16.16
2019-02-17T14:02:38.060Z,16.19
2019-02-17T14:05:10.354Z,16.21
2019-02-17T14:07:41.841Z,16.22
2019-02-17T14:10:14.694Z,16.29
2019-02-17T14:12:46.147Z,16.33
2019-02-17T14:15:17.743Z,16.37
2019-02-17T14:17:48.692Z,16.37
2019-02-17T14:20:19.314Z,16.36
2019-02-17T14:22:51.477Z,16.34
2019-02-17T14:25:21.990Z,16.36
2019-02-17T14:27:52.632Z,16.37
2019-02-17T14:30:26.301Z,16.39
2019-02-17T14:32:59.481Z,16.37
2019-02-17T14:35:31.568Z,16.32
2019-02-17T14:38:04.296Z,16.29
2019-02-17T14:40:34.889Z,16.26
2019-02-17T14:43:05.178Z,16.25
2019-02-17T14:45:35.511Z,16.28
2019-02-17T14:48:11.297Z,16.24
2019-02-17T14:50:39.776Z,16.19
2019-02-17T14:53:10.106Z,16.13
2019-02-17T14:55:48.092Z,16.08
2019-02-17T14:58:18.624Z,16.09
2019-02-17T15:00:49.436Z,16.06
2019-02-17T15:03:21.468Z,16.07
2019-02-17T15:05:53.697Z,16.07
2019-02-17T15:08:24.427Z,16.04
2019-02-17T15:10:56.436Z,15.97
2019-02-17T15:13:27.058Z,15.89
2019-02-17T15:15:58.618Z,15.88
2019-02-17T15:18:31.354Z,15.82
2019-02-17T15:21:01.577Z,15.77
2019-02-17T15:23:33.902Z,15.74
2019-02-17T15:26:05.899Z,15.70
2019-02-17T15:28:36.312Z,15.64
2019-02-17T15:31:06.765Z,15.59
2019-02-17T15:33:38.438Z,15.54
2019-02-17T15:36:10.677Z,15.46
2019-02-17T15:38:42.717Z,15.34
2019-02-17T15:41:13.082Z,15.28
2019-02-17T15:43:45.520Z,15.19
2019-02-17T15:46:17.436Z,15.12
2019-02-17T15:48:50.221Z,15.12
2019-02-17T15:51:20.404Z,15.00
2019-02-17T15:53:54.317Z,14.74
2019-02-17T15:56:26.521Z,14.74
2019-02-17T15:58:59.119Z,14.67
2019-02-17T16:01:30.936Z,14.66
2019-02-17T16:04:01.545Z,14.57
2019-02-17T16:06:32.117Z,14.41
2019-02-17T16:09:12.367Z,14.26
2019-02-17T16:11:37.547Z,14.09
2019-02-17T16:14:08.320Z,13.92
2019-02-17T16:16:40.056Z,13.71
2019-02-17T16:19:10.980Z,13.50
2019-02-17T16:21:41.613Z,13.50
2019-02-17T16:24:12.244Z,13.57
2019-02-17T16:26:42.728Z,13.58
2019-02-17T16:29:13.101Z,13.53
2019-02-17T16:31:43.463Z,13.53
2019-02-17T16:34:13.806Z,13.57
2019-02-17T16:36:46.930Z,13.61
2019-02-17T16:39:17.306Z,13.58
2019-02-17T16:41:48.324Z,13.33
2019-02-17T16:44:18.834Z,13.33
2019-02-17T16:46:49.713Z,12.96
2019-02-17T16:49:20.175Z,12.96
2019-02-17T16:51:50.894Z,12.98
2019-02-17T16:54:23.946Z,12.96
2019-02-17T16:56:54.989Z,12.91
2019-02-17T16:59:25.291Z,12.88
2019-02-17T17:01:57.732Z,12.76
2019-02-17T17:04:29.721Z,12.77
2019-02-17T17:07:01.700Z,12.63
2019-02-17T17:09:34.373Z,12.97
2019-02-17T17:12:05.469Z,12.94
2019-02-17T17:14:38.740Z,12.87
2019-02-17T17:17:13.138Z,12.66
2019-02-17T17:19:42.129Z,12.66
2019-02-17T17:22:14.688Z,12.63
2019-02-17T17:24:45.151Z,12.55
2019-02-17T17:27:18.010Z,12.48
2019-02-17T17:30:13.954Z,12.31
2019-02-17T17:32:46.466Z,12.20
2019-02-17T17:35:17.948Z,12.07
2019-02-17T17:37:48.451Z,11.94
2019-02-17T17:40:26.593Z,12.02
2019-02-17T17:42:55.103Z,11.86
2019-02-17T17:45:27.388Z,11.65
2019-02-17T17:48:02.527Z,11.70
2019-02-17T17:50:34.634Z,11.80
2019-02-17T17:53:04.984Z,11.61
2019-02-17T17:55:37.440Z,11.59
2019-02-17T17:58:09.031Z,11.41
2019-02-17T18:00:39.922Z,11.45
2019-02-17T18:03:10.353Z,11.49
2019-02-17T18:05:43.170Z,11.42
2019-02-17T18:08:13.543Z,11.31
2019-02-17T18:10:48.406Z,11.21
2019-02-17T18:13:16.135Z,11.23
2019-02-17T18:15:46.806Z,11.22
2019-02-17T18:18:17.551Z,11.25
2019-02-17T18:20:49.160Z,11.26
2019-02-17T18:23:22.718Z,11.20
2019-02-17T18:25:53.147Z,11.07
2019-02-17T18:28:24.655Z,11.20
2019-02-17T18:30:56.479Z,11.31
2019-02-17T18:33:33.614Z,11.10
2019-02-17T18:36:04.561Z,11.10
2019-02-17T18:38:38.266Z,11.00
2019-02-17T18:41:11.767Z,11.00
2019-02-17T18:43:42.830Z,10.94
2019-02-17T18:46:13.922Z,10.94
2019-02-17T18:48:44.305Z,10.94
2019-02-17T18:51:14.770Z,10.82
2019-02-17T18:53:46.643Z,10.72
2019-02-17T18:56:19.806Z,10.65
2019-02-17T18:58:50.509Z,10.56
2019-02-17T19:01:23.633Z,10.46
2019-02-17T19:03:56.133Z,10.43
2019-02-17T19:06:28.585Z,10.37
2019-02-17T19:08:58.977Z,10.32
2019-02-17T19:11:29.489Z,10.25
2019-02-17T19:14:00.119Z,10.21
2019-02-17T19:16:30.533Z,10.10
2019-02-17T19:19:00.969Z,10.01
2019-02-17T19:21:33.298Z,9.87
2019-02-17T19:24:05.122Z,9.68
2019-02-17T19:26:35.439Z,9.65
2019-02-17T19:29:08.786Z,9.58
2019-02-17T19:31:40.770Z,9.53
2019-02-17T19:34:15.527Z,9.54
2019-02-17T19:36:46.224Z,9.61
2019-02-17T19:39:17.104Z,9.59
2019-02-17T19:41:48.893Z,9.49
2019-02-17T19:44:21.134Z,9.36
2019-02-17T19:46:52.038Z,9.21
2019-02-17T19:49:28.566Z,9.17
2019-02-17T19:51:58.621Z,9.36
2019-02-17T19:54:29.650Z,9.31
2019-02-17T19:57:06.979Z,9.29
2019-02-17T19:59:34.275Z,9.22
2019-02-17T20:02:04.613Z,9.20
2019-02-17T20:04:44.092Z,9.25
2019-02-17T20:07:14.686Z,9.18
2019-02-17T20:09:47.086Z,9.05
2019-02-17T20:12:20.988Z,8.95
2019-02-17T20:15:00.909Z,8.82
2019-02-17T20:17:31.577Z,8.63
2019-02-17T20:20:02.347Z,8.49
2019-02-17T20:22:32.943Z,8.49
2019-02-17T20:25:03.876Z,8.26
2019-02-17T20:27:38.000Z,8.26
2019-02-17T20:30:10.572Z,8.30
2019-02-17T20:32:43.128Z,8.30
2019-02-17T20:35:16.337Z,8.21
2019-02-17T20:37:47.101Z,8.17
2019-02-17T20:40:17.516Z,8.16
2019-02-17T20:42:49.012Z,8.09
2019-02-17T20:45:19.586Z,8.00
2019-02-17T20:47:49.947Z,7.90
2019-02-17T20:50:20.407Z,7.84
2019-02-17T20:52:50.800Z,7.80
2019-02-17T20:55:21.432Z,7.74
2019-02-17T20:57:53.902Z,7.78
2019-02-17T21:00:30.163Z,7.75
2019-02-17T21:03:02.483Z,7.72
2019-02-17T21:05:33.306Z,7.79
2019-02-17T21:08:07.547Z,7.80
2019-02-17T21:10:40.283Z,7.78
2019-02-17T21:13:11.398Z,7.79
2019-02-17T21:15:43.597Z,7.84
2019-02-17T21:18:14.089Z,7.85
2019-02-17T21:20:44.466Z,7.86
2019-02-17T21:23:14.812Z,7.86
2019-02-17T21:25:47.463Z,7.81
2019-02-17T21:28:17.717Z,7.66
2019-02-17T21:30:50.569Z,7.66
2019-02-17T21:33:28.472Z,7.57
2019-02-17T21:36:01.262Z,7.50
2019-02-17T21:38:32.163Z,7.43
2019-02-17T21:41:09.468Z,7.35
2019-02-17T21:43:39.190Z,7.28
2019-02-17T21:46:11.399Z,7.28
2019-02-17T21:48:44.327Z,7.28
2019-02-17T21:51:18.400Z,7.24
2019-02-17T21:53:49.012Z,7.14
2019-02-17T21:56:20.010Z,7.07
2019-02-17T21:58:54.145Z,7.04
2019-02-17T22:01:26.171Z,6.93
2019-02-17T22:03:56.602Z,6.93
2019-02-17T22:06:33.771Z,6.92
2019-02-17T22:09:01.975Z,6.92
2019-02-17T22:11:35.743Z,6.83
2019-02-17T22:14:06.196Z,6.71
2019-02-17T22:16:36.552Z,6.65
2019-02-17T22:19:11.041Z,6.69
2019-02-17T22:21:41.805Z,6.66
2019-02-17T22:24:12.086Z,6.58
2019-02-17T22:26:42.814Z,6.51
2019-02-17T22:29:13.409Z,6.41
2019-02-17T22:31:43.759Z,6.48
2019-02-17T22:34:15.599Z,6.48
2019-02-17T22:36:47.573Z,6.51
2019-02-17T22:39:18.049Z,6.57
2019-02-17T22:41:49.623Z,6.52
2019-02-17T22:44:20.193Z,6.54
2019-02-17T22:46:50.627Z,6.48
2019-02-17T22:49:21.331Z,6.48
2019-02-17T22:51:51.729Z,6.50
2019-02-17T22:54:24.164Z,6.52
2019-02-17T22:56:56.485Z,6.65
2019-02-17T22:59:27.042Z,6.59
2019-02-17T23:01:58.955Z,6.46
2019-02-17T23:04:29.259Z,6.31
2019-02-17T23:06:59.692Z,6.22
2019-02-17T23:09:31.517Z,6.28
2019-02-17T23:12:01.797Z,6.41
2019-02-17T23:14:33.193Z,6.36
2019-02-17T23:17:03.519Z,6.48
2019-02-17T23:19:34.124Z,6.48
2019-02-17T23:22:05.123Z,6.32
2019-02-17T23:24:36.760Z,6.32
2019-02-17T23:27:07.254Z,6.28
2019-02-17T23:29:40.479Z,6.31
2019-02-17T23:32:11.094Z,6.40
2019-02-17T23:34:41.384Z,6.26
2019-02-17T23:37:11.805Z,6.10
2019-02-17T23:39:42.209Z,5.96
2019-02-17T23:42:14.304Z,6.05
2019-02-17T23:44:48.527Z,6.12
2019-02-17T23:47:20.247Z,5.94
2019-02-17T23:49:52.171Z,5.94
2019-02-17T23:52:24.547Z,5.99
2019-02-17T23:54:58.575Z,5.98
2019-02-17T23:57:28.966Z,5.88
2019-02-17T23:59:59.467Z,5.91
